UUOO/VOZ METAR and TAF weather

Enter ICAO airport designator
Station Type Date Time Source
UUOO METAR 2019/06/18 04:30 UTC NOAA

UUOO 180430Z VRB01MPS CAVOK 22/14 Q1015 R30/090070 NOSIG RMK QFE748


Station Type Date Time Source
UUOO Decoded METAR 2019/06/18 04:30 UTC NOAA

Voronez, Russia (UUOO) 51-39N 039-15E 104M
Jun 18, 2019 - 12:30 AM EDT / 2019.06.18 0430 UTC
Wind: Variable at 2 MPH (2 KT):0
Visibility: greater than 7 mile(s):0
Temperature: 71 F (22 C)
Dew Point: 57 F (14 C)
Relative Humidity: 60%
Pressure (altimeter): 29.97 in. Hg (1015 hPa)
ob: UUOO 180430Z VRB01MPS CAVOK 22/14 Q1015 R30/090070 NOSIG RMK QFE748
cycle: 4

Station Type Date Time Source
UUOO TAF 2018/12/04 17:51 UTC NOAA

TAF
AMD TAF
AMD UUOO 041549Z 0417/0524 14004MPS 0600 FZFG VV002
TEMPO 0418/0421 1400 FZDZ BR VV002

Example: see airport list